Wetterdaten: Woche 17.12.12 - 23.12.12 (KW51)
Datum Zeit Temp. A. Feuchte A. Luftdruck Regen Wind Richtung Taupunkt Windchill Windben
17.12.2012 00:00 1,3 C 81 % 1012,7 hPa 0,0 l/m 0,2 km/h N -1,6 C 1,3 C 2,4 km/h
17.12.2012 01:00 1,3 C 81 % 1012,4 hPa 0,0 l/m 0,1 km/h N -1,7 C 1,3 C 1,6 km/h
17.12.2012 02:00 0,8 C 82 % 1012,1 hPa 0,0 l/m 0,1 km/h N -2,0 C 0,8 C 1,6 km/h
17.12.2012 03:00 0,1 C 81 % 1011,9 hPa 0,0 l/m 0,0 km/h N -2,8 C 0,1 C 0,0 km/h
17.12.2012 04:00 0,5 C 80 % 1011,5 hPa 0,0 l/m 0,0 km/h N -2,6 C 0,5 C 0,4 km/h
17.12.2012 05:00 0,6 C 80 % 1011,3 hPa 0,0 l/m 2,8 km/h N -2,4 C 0,6 C 8,4 km/h
17.12.2012 06:00 0,7 C 80 % 1011,3 hPa 0,0 l/m 1,6 km/h N -2,3 C 0,7 C 7,2 km/h
17.12.2012 07:00 1,0 C 80 % 1011,0 hPa 0,0 l/m 0,3 km/h N -2,1 C 1,0 C 4,4 km/h
17.12.2012 08:00 1,6 C 79 % 1011,0 hPa 0,0 l/m 0,6 km/h N -1,6 C 1,6 C 4,0 km/h
17.12.2012 09:00 1,8 C 79 % 1011,2 hPa 0,0 l/m 0,0 km/h N -1,5 C 1,8 C 1,2 km/h
17.12.2012 10:00 1,9 C 79 % 1011,3 hPa 0,0 l/m 0,1 km/h N -1,4 C 1,9 C 1,2 km/h
17.12.2012 11:00 2,6 C 78 % 1011,2 hPa 0,0 l/m 3,4 km/h N -0,8 C 2,6 C 10,1 km/h
17.12.2012 12:00 2,7 C 78 % 1011,0 hPa 0,0 l/m 3,4 km/h N -0,7 C 2,7 C 10,1 km/h
17.12.2012 13:00 2,9 C 78 % 1011,0 hPa 0,0 l/m 1,1 km/h N -0,5 C 2,9 C 6,4 km/h
17.12.2012 14:00 3,1 C 78 % 1010,8 hPa 0,0 l/m 1,0 km/h N -0,4 C 3,1 C 6,4 km/h
17.12.2012 15:00 3,1 C 78 % 1011,1 hPa 0,0 l/m 1,2 km/h N -0,4 C 3,1 C 6,0 km/h
17.12.2012 16:00 2,8 C 78 % 1011,4 hPa 0,0 l/m 2,1 km/h N -0,6 C 2,8 C 7,6 km/h
17.12.2012 17:00 2,7 C 78 % 1011,5 hPa 0,0 l/m 2,4 km/h N -0,7 C 2,7 C 8,0 km/h
17.12.2012 18:00 2,8 C 78 % 1011,5 hPa 0,3 l/m 2,3 km/h N -0,7 C 2,8 C 8,9 km/h
17.12.2012 19:00 2,5 C 78 % 1011,3 hPa 0,0 l/m 1,6 km/h N -0,9 C 2,5 C 7,6 km/h
17.12.2012 20:00 2,4 C 78 % 1011,3 hPa 0,0 l/m 0,4 km/h N -1,1 C 2,4 C 4,4 km/h
17.12.2012 21:00 2,2 C 78 % 1011,5 hPa 0,0 l/m 0,6 km/h N -1,3 C 2,2 C 3,6 km/h
17.12.2012 22:00 2,0 C 78 % 1011,5 hPa 0,0 l/m 0,0 km/h N -1,4 C 2,0 C 0,4 km/h
17.12.2012 23:00 1,8 C 78 % 1011,6 hPa 0,0 l/m 0,0 km/h N -1,6 C 1,8 C 0,0 km/h
18.12.2012 00:00 1,5 C 78 % 1011,6 hPa 0,0 l/m 0,3 km/h N -2,0 C 1,5 C 2,4 km/h
18.12.2012 01:00 1,3 C 78 % 1011,8 hPa 0,0 l/m 0,2 km/h N -2,2 C 1,3 C 4,0 km/h
18.12.2012 02:00 1,3 C 78 % 1011,7 hPa 0,0 l/m 0,2 km/h N -2,1 C 1,3 C 2,8 km/h
18.12.2012 03:00 1,2 C 78 % 1011,6 hPa 0,0 l/m 0,1 km/h N -2,2 C 1,2 C 1,6 km/h
18.12.2012 04:00 1,1 C 78 % 1011,6 hPa 0,0 l/m 0,0 km/h N -2,3 C 1,1 C 0,0 km/h
18.12.2012 05:00 1,2 C 78 % 1011,8 hPa 0,0 l/m 0,0 km/h N -2,2 C 1,2 C 0,4 km/h
18.12.2012 06:00 1,3 C 78 % 1012,1 hPa 0,0 l/m 0,0 km/h N -2,1 C 1,3 C 0,4 km/h
18.12.2012 07:00 1,4 C 78 % 1012,6 hPa 0,0 l/m 0,0 km/h N -2,0 C 1,4 C 0,8 km/h
18.12.2012 08:00 1,4 C 78 % 1013,1 hPa 0,0 l/m 1,0 km/h N -2,0 C 1,4 C 5,6 km/h
18.12.2012 09:00 1,6 C 78 % 1013,7 hPa 0,0 l/m 0,6 km/h N -1,9 C 1,6 C 5,2 km/h
18.12.2012 10:00 2,3 C 77 % 1013,8 hPa 0,0 l/m 0,0 km/h N -1,4 C 2,3 C 0,4 km/h
18.12.2012 11:00 2,7 C 77 % 1013,6 hPa 0,0 l/m 0,0 km/h N -0,9 C 2,7 C 0,4 km/h
18.12.2012 12:00 2,8 C 77 % 1013,8 hPa 0,3 l/m 0,2 km/h N -0,8 C 2,8 C 4,4 km/h
18.12.2012 13:00 2,8 C 77 % 1014,0 hPa 0,5 l/m 0,6 km/h N -0,9 C 2,8 C 4,8 km/h
18.12.2012 14:00 2,8 C 77 % 1014,1 hPa 0,0 l/m 0,0 km/h N -0,8 C 2,8 C 0,4 km/h
18.12.2012 15:00 2,7 C 77 % 1014,4 hPa 0,0 l/m 0,0 km/h N -0,9 C 2,7 C 0,0 km/h
18.12.2012 16:00 2,5 C 79 % 1015,1 hPa 0,0 l/m 0,0 km/h N -0,8 C 2,5 C 0,0 km/h
18.12.2012 17:00 2,4 C 78 % 1015,5 hPa 0,0 l/m 0,0 km/h N -1,1 C 2,4 C 0,0 km/h
18.12.2012 18:00 2,4 C 78 % 1015,8 hPa 0,0 l/m 0,0 km/h N -1,1 C 2,4 C 0,0 km/h
18.12.2012 19:00 2,4 C 78 % 1016,2 hPa 0,0 l/m 0,0 km/h N -1,1 C 2,4 C 0,0 km/h
18.12.2012 20:00 2,2 C 78 % 1016,5 hPa 0,0 l/m 0,0 km/h N -1,2 C 2,2 C 0,4 km/h
18.12.2012 21:00 2,7 C 78 % 1016,6 hPa 0,3 l/m 1,6 km/h N -0,9 C 2,7 C 7,7 km/h
18.12.2012 22:00 3,7 C 77 % 1016,8 hPa 0,0 l/m 4,7 km/h N 0,1 C 3,7 C 15,7 km/h
18.12.2012 23:00 4,0 C 78 % 1017,4 hPa 0,0 l/m 5,6 km/h N 0,5 C 4,0 C 16,9 km/h
19.12.2012 00:00 4,3 C 81 % 1017,9 hPa 0,0 l/m 5,3 km/h N 1,2 C 3,8 C 14,1 km/h
19.12.2012 01:00 4,2 C 84 % 1018,3 hPa 0,0 l/m 4,8 km/h N 1,7 C 4,2 C 12,1 km/h
19.12.2012 02:00 3,9 C 85 % 1018,7 hPa 0,0 l/m 4,4 km/h N 1,7 C 3,9 C 13,3 km/h
19.12.2012 03:00 3,8 C 86 % 1018,7 hPa 0,0 l/m 5,9 km/h N 1,7 C 3,8 C 14,9 km/h
19.12.2012 04:00 3,8 C 86 % 1018,9 hPa 0,0 l/m 7,7 km/h N 1,7 C 2,7 C 17,7 km/h
19.12.2012 05:00 3,8 C 85 % 1019,2 hPa 0,0 l/m 7,5 km/h N 1,6 C 2,8 C 20,1 km/h
19.12.2012 06:00 3,4 C 86 % 1019,7 hPa 0,0 l/m 8,8 km/h N 1,2 C 1,3 C 20,9 km/h
19.12.2012 07:00 3,2 C 86 % 1020,3 hPa 0,0 l/m 10,4 km/h N 1,1 C -0,2 C 20,9 km/h
19.12.2012 08:00 3,2 C 86 % 1021,0 hPa 0,0 l/m 8,9 km/h N 1,1 C 1,0 C 20,5 km/h
19.12.2012 09:00 3,3 C 85 % 1021,5 hPa 0,0 l/m 9,1 km/h N 1,1 C 0,9 C 19,3 km/h
19.12.2012 10:00 3,3 C 86 % 1022,0 hPa 0,0 l/m 9,6 km/h N 1,2 C 0,6 C 21,3 km/h
19.12.2012 11:00 3,6 C 85 % 1021,9 hPa 0,0 l/m 10,3 km/h N 1,3 C 0,3 C 22,9 km/h
19.12.2012 12:00 3,7 C 85 % 1022,0 hPa 0,0 l/m 9,1 km/h N 1,4 C 1,4 C 21,7 km/h
19.12.2012 13:00 4,0 C 85 % 1022,0 hPa 0,0 l/m 8,6 km/h N 1,7 C 2,0 C 21,3 km/h
19.12.2012 14:00 4,0 C 86 % 1022,2 hPa 0,0 l/m 7,6 km/h N 1,8 C 2,9 C 18,9 km/h
19.12.2012 15:00 4,0 C 85 % 1022,5 hPa 0,0 l/m 8,0 km/h N 1,8 C 2,6 C 18,9 km/h
19.12.2012 16:00 4,1 C 86 % 1022,8 hPa 0,0 l/m 7,3 km/h N 1,9 C 3,1 C 18,5 km/h
19.12.2012 17:00 4,1 C 86 % 1023,0 hPa 0,0 l/m 6,2 km/h N 2,0 C 4,0 C 15,3 km/h
19.12.2012 18:00 4,3 C 85 % 1023,3 hPa 0,0 l/m 7,2 km/h N 2,0 C 3,6 C 18,5 km/h
19.12.2012 19:00 4,3 C 85 % 1023,7 hPa 0,0 l/m 6,9 km/h N 2,0 C 3,8 C 17,3 km/h
19.12.2012 20:00 4,0 C 85 % 1024,1 hPa 0,0 l/m 5,7 km/h N 1,7 C 4,0 C 14,9 km/h
19.12.2012 21:00 3,5 C 86 % 1024,3 hPa 0,0 l/m 4,8 km/h N 1,3 C 3,5 C 12,1 km/h
19.12.2012 22:00 3,5 C 85 % 1024,3 hPa 0,0 l/m 4,5 km/h N 1,2 C 3,5 C 12,1 km/h
19.12.2012 23:00 3,6 C 85 % 1024,3 hPa 0,0 l/m 4,4 km/h N 1,3 C 3,6 C 11,7 km/h
20.12.2012 00:00 3,3 C 85 % 1024,1 hPa 0,3 l/m 4,9 km/h N 1,0 C 3,3 C 14,9 km/h
20.12.2012 01:00 3,3 C 85 % 1023,8 hPa 0,0 l/m 5,3 km/h N 1,0 C 3,3 C 14,5 km/h
20.12.2012 02:00 3,3 C 86 % 1023,5 hPa 0,0 l/m 6,3 km/h N 1,2 C 3,1 C 16,1 km/h
20.12.2012 03:00 3,4 C 86 % 1023,2 hPa 0,0 l/m 7,6 km/h N 1,3 C 2,3 C 17,3 km/h
20.12.2012 04:00 3,3 C 86 % 1022,9 hPa 0,0 l/m 4,5 km/h N 1,2 C 3,3 C 11,7 km/h
20.12.2012 05:00 3,3 C 86 % 1022,7 hPa 0,0 l/m 3,4 km/h N 1,1 C 3,3 C 10,1 km/h
20.12.2012 06:00 3,1 C 85 % 1022,4 hPa 0,0 l/m 3,5 km/h N 0,9 C 3,1 C 10,1 km/h
20.12.2012 07:00 2,6 C 85 % 1022,3 hPa 0,0 l/m 2,3 km/h N 0,3 C 2,6 C 8,9 km/h
20.12.2012 08:00 2,8 C 85 % 1022,2 hPa 0,0 l/m 1,4 km/h N 0,5 C 2,8 C 5,6 km/h
20.12.2012 09:00 3,0 C 85 % 1022,0 hPa 0,0 l/m 2,0 km/h N 0,7 C 3,0 C 7,2 km/h
20.12.2012 10:00 3,5 C 82 % 1021,7 hPa 0,0 l/m 4,9 km/h N 0,7 C 3,5 C 12,5 km/h
20.12.2012 11:00 3,7 C 78 % 1020,9 hPa 0,0 l/m 5,0 km/h N 0,1 C 3,7 C 12,5 km/h
20.12.2012 12:00 3,5 C 74 % 1020,3 hPa 0,0 l/m 5,4 km/h N -0,7 C 3,5 C 11,3 km/h
20.12.2012 13:00 3,5 C 72 % 1019,8 hPa 0,0 l/m 5,5 km/h N -1,0 C 3,5 C 11,7 km/h
20.12.2012 14:00 2,9 C 72 % 1019,4 hPa 0,0 l/m 4,1 km/h N -1,6 C 2,9 C 9,7 km/h
20.12.2012 15:00 2,2 C 73 % 1019,0 hPa 0,0 l/m 1,8 km/h N -2,2 C 2,2 C 6,0 km/h
20.12.2012 16:00 0,7 C 75 % 1018,9 hPa 0,0 l/m 0,0 km/h N -3,2 C 0,7 C 0,0 km/h
20.12.2012 17:00 -0,7 C 79 % 1018,6 hPa 0,0 l/m 0,0 km/h N -3,9 C -0,7 C 0,0 km/h
20.12.2012 18:00 -0,7 C 83 % 1018,0 hPa 0,0 l/m 0,2 km/h N -3,2 C -0,7 C 2,8 km/h
20.12.2012 19:00 0,1 C 84 % 1017,6 hPa 0,0 l/m 0,7 km/h N -2,4 C 0,1 C 4,8 km/h
20.12.2012 20:00 0,3 C 82 % 1017,0 hPa 0,0 l/m 0,1 km/h N -2,4 C 0,3 C 0,8 km/h
20.12.2012 21:00 0,2 C 82 % 1016,5 hPa 0,0 l/m 0,0 km/h N -2,5 C 0,2 C 0,4 km/h
20.12.2012 22:00 -0,1 C 84 % 1016,0 hPa 0,0 l/m 0,0 km/h N -2,6 C -0,1 C 0,4 km/h
20.12.2012 23:00 -0,2 C 84 % 1015,5 hPa 0,0 l/m 0,3 km/h N -2,6 C -0,2 C 2,4 km/h
21.12.2012 00:00 -0,9 C 86 % 1015,1 hPa 0,0 l/m 1,3 km/h N -3,1 C -0,9 C 7,3 km/h
21.12.2012 01:00 -1,2 C 86 % 1014,9 hPa 0,0 l/m 0,8 km/h N -3,3 C -1,2 C 5,6 km/h
21.12.2012 02:00 -1,1 C 85 % 1015,0 hPa 0,0 l/m 0,3 km/h N -3,3 C -1,1 C 4,8 km/h
21.12.2012 03:00 -0,8 C 84 % 1014,9 hPa 0,0 l/m 0,3 km/h N -3,2 C -0,8 C 3,2 km/h
21.12.2012 04:00 -0,7 C 84 % 1014,8 hPa 0,0 l/m 0,1 km/h N -3,1 C -0,7 C 2,0 km/h
21.12.2012 05:00 -0,5 C 84 % 1014,5 hPa 0,0 l/m 0,7 km/h N -2,9 C -0,5 C 6,4 km/h
21.12.2012 06:00 -0,5 C 84 % 1014,5 hPa 0,0 l/m 2,0 km/h N -2,9 C -0,5 C 8,8 km/h
21.12.2012 07:00 -0,6 C 84 % 1014,5 hPa 0,0 l/m 3,0 km/h N -2,9 C -0,6 C 8,0 km/h
21.12.2012 08:00 -0,6 C 85 % 1014,5 hPa 0,0 l/m 3,6 km/h N -2,8 C -0,6 C 10,8 km/h
21.12.2012 09:00 -0,6 C 85 % 1014,8 hPa 0,0 l/m 4,7 km/h N -2,8 C -0,6 C 11,7 km/h
21.12.2012 10:00 -0,4 C 85 % 1015,1 hPa 0,0 l/m 4,0 km/h N -2,6 C -0,4 C 10,1 km/h
21.12.2012 11:00 -0,1 C 85 % 1014,8 hPa 0,0 l/m 3,5 km/h N -2,3 C -0,1 C 9,3 km/h
21.12.2012 12:00 0,2 C 85 % 1014,6 hPa 0,0 l/m 2,5 km/h N -2,0 C 0,2 C 9,7 km/h
21.12.2012 13:00 0,5 C 86 % 1014,5 hPa 0,0 l/m 2,9 km/h N -1,6 C 0,5 C 9,3 km/h
21.12.2012 14:00 0,4 C 86 % 1014,8 hPa 0,0 l/m 0,7 km/h N -1,6 C 0,4 C 6,8 km/h
21.12.2012 15:00 0,0 C 86 % 1015,2 hPa 0,0 l/m 0,5 km/h N -2,1 C 0,0 C 4,4 km/h
21.12.2012 16:00 -0,3 C 85 % 1015,4 hPa 0,0 l/m 0,4 km/h N -2,5 C -0,3 C 4,8 km/h
21.12.2012 17:00 -0,3 C 85 % 1015,6 hPa 0,0 l/m 0,1 km/h N -2,6 C -0,3 C 2,8 km/h
21.12.2012 18:00 -0,5 C 85 % 1016,0 hPa 0,0 l/m 0,1 km/h N -2,7 C -0,5 C 2,0 km/h
21.12.2012 19:00 -0,6 C 85 % 1016,7 hPa 0,0 l/m 0,1 km/h N -2,8 C -0,6 C 2,0 km/h
21.12.2012 20:00 -0,6 C 85 % 1017,3 hPa 0,0 l/m 0,0 km/h N -2,8 C -0,6 C 1,6 km/h
21.12.2012 21:00 -0,7 C 84 % 1017,8 hPa 0,0 l/m 0,0 km/h N -3,0 C -0,7 C 0,0 km/h
21.12.2012 22:00 -0,7 C 84 % 1018,3 hPa 0,0 l/m 0,0 km/h N -3,1 C -0,7 C 0,0 km/h
21.12.2012 23:00 -0,7 C 84 % 1018,7 hPa 0,0 l/m 0,1 km/h N -3,1 C -0,7 C 1,2 km/h
22.12.2012 00:00 -0,7 C 84 % 1018,9 hPa 0,0 l/m 0,0 km/h N -3,1 C -0,7 C 0,0 km/h
22.12.2012 01:00 -0,6 C 84 % 1019,1 hPa 0,0 l/m 0,0 km/h N -3,0 C -0,6 C 0,0 km/h
22.12.2012 02:00 -0,6 C 83 % 1019,6 hPa 0,0 l/m 0,0 km/h N -3,1 C -0,6 C 0,0 km/h
22.12.2012 03:00 -0,6 C 83 % 1020,0 hPa 0,0 l/m 0,0 km/h N -3,1 C -0,6 C 0,0 km/h
22.12.2012 04:00 -0,6 C 83 % 1020,3 hPa 0,0 l/m 0,0 km/h N -3,1 C -0,6 C 0,0 km/h
22.12.2012 05:00 -0,5 C 83 % 1020,7 hPa 0,0 l/m 0,0 km/h N -3,0 C -0,5 C 0,0 km/h
22.12.2012 06:00 -0,5 C 83 % 1021,0 hPa 0,0 l/m 0,0 km/h N -3,0 C -0,5 C 0,0 km/h
22.12.2012 07:00 -0,7 C 83 % 1021,6 hPa 0,0 l/m 0,0 km/h N -3,2 C -0,7 C 0,0 km/h
22.12.2012 08:00 -0,8 C 83 % 1022,3 hPa 0,0 l/m 0,0 km/h N -3,3 C -0,8 C 0,0 km/h
22.12.2012 09:00 -0,7 C 83 % 1023,0 hPa 0,0 l/m 0,0 km/h N -3,2 C -0,7 C 0,0 km/h
22.12.2012 10:00 -0,8 C 83 % 1023,4 hPa 0,0 l/m 0,0 km/h N -3,3 C -0,8 C 0,8 km/h
22.12.2012 11:00 -0,9 C 84 % 1023,2 hPa 0,0 l/m 0,1 km/h N -3,4 C -0,9 C 2,8 km/h
22.12.2012 12:00 -0,8 C 84 % 1022,8 hPa 0,0 l/m 0,3 km/h N -3,2 C -0,8 C 2,4 km/h
22.12.2012 13:00 -0,8 C 84 % 1022,4 hPa 0,0 l/m 0,0 km/h N -3,1 C -0,8 C 0,8 km/h
22.12.2012 14:00 -0,6 C 84 % 1022,3 hPa 0,0 l/m 0,0 km/h N -2,9 C -0,6 C 0,8 km/h
22.12.2012 15:00 -0,4 C 84 % 1022,2 hPa 0,0 l/m 0,3 km/h N -2,8 C -0,4 C 3,2 km/h
22.12.2012 16:00 -0,5 C 84 % 1022,0 hPa 0,0 l/m 0,4 km/h N -2,9 C -0,5 C 2,8 km/h
22.12.2012 17:00 -0,3 C 84 % 1021,9 hPa 0,0 l/m 1,4 km/h N -2,7 C -0,3 C 5,6 km/h
22.12.2012 18:00 -0,1 C 84 % 1021,5 hPa 0,0 l/m 2,1 km/h N -2,5 C -0,1 C 6,8 km/h
22.12.2012 19:00 0,1 C 83 % 1021,1 hPa 0,0 l/m 3,2 km/h N -2,4 C 0,1 C 9,6 km/h
22.12.2012 20:00 0,0 C 83 % 1020,6 hPa 0,0 l/m 3,0 km/h N -2,6 C 0,0 C 10,9 km/h
22.12.2012 21:00 -0,1 C 82 % 1020,2 hPa 0,0 l/m 3,5 km/h N -2,8 C -0,1 C 9,3 km/h
22.12.2012 22:00 -0,1 C 82 % 1019,7 hPa 0,0 l/m 4,1 km/h N -2,8 C -0,1 C 10,4 km/h
22.12.2012 23:00 0,0 C 81 % 1019,4 hPa 0,0 l/m 2,7 km/h N -2,8 C 0,0 C 8,4 km/h
23.12.2012 00:00 0,2 C 81 % 1018,7 hPa 0,0 l/m 0,4 km/h N -2,7 C 0,2 C 4,4 km/h
23.12.2012 01:00 0,2 C 81 % 1017,7 hPa 0,0 l/m 1,8 km/h N -2,7 C 0,2 C 8,9 km/h
23.12.2012 02:00 0,2 C 81 % 1016,9 hPa 0,0 l/m 0,7 km/h N -2,7 C 0,2 C 5,2 km/h
23.12.2012 03:00 0,3 C 81 % 1016,2 hPa 0,0 l/m 0,5 km/h N -2,6 C 0,3 C 4,4 km/h
23.12.2012 04:00 0,3 C 81 % 1015,8 hPa 0,0 l/m 0,0 km/h N -2,6 C 0,3 C 0,0 km/h
23.12.2012 05:00 0,5 C 81 % 1015,8 hPa 0,0 l/m 2,7 km/h N -2,3 C 0,5 C 11,3 km/h
23.12.2012 06:00 0,3 C 82 % 1016,0 hPa 0,0 l/m 4,8 km/h N -2,4 C 0,3 C 13,7 km/h
23.12.2012 07:00 0,1 C 82 % 1016,0 hPa 0,0 l/m 4,4 km/h N -2,7 C 0,1 C 11,7 km/h
23.12.2012 08:00 0,1 C 81 % 1016,0 hPa 0,0 l/m 3,8 km/h N -2,8 C 0,1 C 11,7 km/h
23.12.2012 09:00 0,2 C 81 % 1015,8 hPa 0,0 l/m 3,9 km/h N -2,7 C 0,2 C 10,5 km/h
23.12.2012 10:00 0,2 C 81 % 1016,1 hPa 0,0 l/m 2,6 km/h N -2,7 C 0,2 C 8,9 km/h
23.12.2012 11:00 0,1 C 81 % 1016,0 hPa 2,9 l/m 5,0 km/h N -2,8 C 0,1 C 14,1 km/h
23.12.2012 12:00 -0,0 C 81 % 1015,8 hPa 3,6 l/m 4,6 km/h N -2,9 C -0,0 C 13,3 km/h
23.12.2012 13:00 0,0 C 81 % 1015,5 hPa 2,1 l/m 3,4 km/h N -2,9 C 0,0 C 12,5 km/h
23.12.2012 14:00 0,1 C 81 % 1015,4 hPa 2,1 l/m 0,0 km/h N -2,8 C 0,1 C 0,0 km/h
23.12.2012 15:00 0,0 C 81 % 1015,6 hPa 1,6 l/m 0,0 km/h N -2,8 C 0,0 C 0,0 km/h
23.12.2012 16:00 0,0 C 81 % 1015,9 hPa 2,1 l/m 0,0 km/h N -2,9 C 0,0 C 0,0 km/h
23.12.2012 17:00 0,1 C 80 % 1016,0 hPa 2,9 l/m 0,0 km/h N -2,9 C 0,1 C 0,0 km/h
23.12.2012 18:00 0,2 C 80 % 1016,2 hPa 2,9 l/m 0,0 km/h N -2,9 C 0,2 C 0,0 km/h
23.12.2012 19:00 0,3 C 80 % 1016,4 hPa 2,1 l/m 0,0 km/h N -2,8 C 0,3 C 0,0 km/h
23.12.2012 20:00 0,3 C 80 % 1016,6 hPa 2,1 l/m 0,0 km/h N -2,7 C 0,3 C 0,0 km/h
23.12.2012 21:00 0,6 C 80 % 1016,6 hPa 2,1 l/m 0,0 km/h N -2,4 C 0,6 C 0,0 km/h
23.12.2012 22:00 0,7 C 80 % 1016,8 hPa 3,4 l/m 0,0 km/h N -2,3 C 0,7 C 0,0 km/h
23.12.2012 23:00 0,6 C 80 % 1017,0 hPa 1,6 l/m 0,0 km/h N -2,4 C 0,6 C 0,0 km/h
Min-Datum _ 21.12.12 20.12.12 17.12.12 - 17.12.12 - 20.12.12 19.12.12 17.12.12
_ Min-Zeit 01:15 13:00 12:45 - 00:00 - 17:15 07:15 00:00
Minimum _ -1,2 C 71 % 1010,8 hPa - 0,0 km/h - -3,9 C -1,3 C 0,0 km/h
Max-Datum _ 19.12.12 19.12.12 19.12.12 23.12.12 19.12.12 - 19.12.12 19.12.12 19.12.12
_ Max-Zeit 00:30 02:45 21:30 12:15 07:15 - 17:45 18:30 10:45
Maximum _ 4,3 C 86 % 1024,4 hPa 3,6 l/m 11,9 km/h
N
- 2,1 C 4,3 C 25,7 km/h
N
Durchschnitt _ 1,3 C 82 % 1017,2 hPa #32,8 l/m 2,2 km/h N -1,5 C 1,1 C 6,8 km/h